Charlotte, NC (28209)

6:39 AM EDT on September 30, 2014 (GMT -0400)
Madison Park | Change Station
CLOSE
Current Station
Personal Weather Station
Location: Charlotte, NC
Elevation: 692 ft
Nearby Weather Stations
Active Advisory: Dense Fog Advisory

Elev 692 ft 35.17 °N, 80.87 °W | Updated 28 seconds ago

Fog
Fog
59.7 °F
Feels Like 59.7 °F
N
0.0
Wind Variable Wind from NE
Gusts 0.0 mph

Today
High -- | Low -- °F
--% Chance of Precip.
Yesterday
High -- | Low -- °F
Precip. -- in
7:17 AM 7:08 PM
Waxing Crescent, 35% visible
Pressure 29.94 in
Visibility 0.2 miles
Clouds
Dew Point 59 °F
Humidity 99%
Rainfall 0.00 in
Snow Depth Not available.
UV Not available.
Pollen .40 out of 12
Ozone Good
PM2.5 Good
Flu Activity Not available.
SPECI KCLT 301002Z 00000KT 1/4SM R18C/1600V2200FT FG VV001 16/14 A2994 RMK AO2

More Conditions Fewer Conditions

Pressure 29.94 in
Visibility 0.2 miles
Clouds
Dew Point 59 °F
Humidity 99%
Rainfall 0.00 in
Snow Depth Not available.
UV Not available.
Pollen .40 out of 12
Ozone Good
PM2.5 Good
Flu Activity Not available.
SPECI KCLT 301002Z 00000KT 1/4SM R18C/1600V2200FT FG VV001 16/14 A2994 RMK AO2

More Conditions Fewer Conditions

10-Day Weather Forecast

Almanac

Astronomy

Sep. 30, 2014 Rise Set
Actual Time 7:17 AM EDT 7:08 PM EDT
Civil Twilight 6:52 AM EDT 7:34 PM EDT
Nautical Twilight 6:22 AM EDT 8:03 PM EDT
Astronomical Twilight 5:53 AM EDT 8:32 PM EDT
Moon 1:14 PM EDT 11:47 PM EDT
Length of Visible Light 12h 41m
Length of Day
11h 51m
Tomorrow will be 2m 11s shorter.
Waxing Crescent, 35% of the Moon is Illuminated
Today
Waxing Crescent
Oct 1
First Quarter
Oct 8
Full
Oct 15
Last Quarter
Oct 23
New

Today's Extremes

State Highs State Lows

Community

WunderPhotos

Upload Photos

1,757,609 photos uploaded!

WunderBlogs® & News

Nearby

Air Quality

  Air Quality AQ Index Pollutant
Yesterday Good
PM2.5
Yesterday Good
OZONE
Current Good
PM2.5
Current Good
OZONE
Tuesday Moderate
OZONE
Tuesday Good
PM2.5
Wednesday Moderate
OZONE
Wednesday Moderate
PM2.5
Thursday Moderate
OZONE
Thursday Moderate
PM2.5

Snow Depth

Station Depth Elevation
No new snow has been reported.

Earthquake Activity

City Distance Mag. Time & Date
No recent earthquake activity has been reported nearby.
Minimum magnitude displayed is 2.5.

Coastal Water Temperatures

Place Temperature
No Stations Reporting

Nearby Weather Stations